sensor_id;sensor_type;location;lat;lon;timestamp;P1;durP1;ratioP1;P2;durP2;ratioP2
13687;SDS011;6916;51.504;7.416;2023-08-06T00:05:18;4.37;;;2.50;;
13687;SDS011;6916;51.504;7.416;2023-08-06T00:15:23;3.35;;;2.58;;
13687;SDS011;6916;51.504;7.416;2023-08-06T00:25:25;2.97;;;2.70;;
13687;SDS011;6916;51.504;7.416;2023-08-06T00:35:28;3.33;;;3.00;;
13687;SDS011;6916;51.504;7.416;2023-08-06T00:45:36;4.57;;;2.07;;
13687;SDS011;6916;51.504;7.416;2023-08-06T00:55:39;6.63;;;2.97;;
13687;SDS011;6916;51.504;7.416;2023-08-06T01:05:42;4.05;;;2.97;;
13687;SDS011;6916;51.504;7.416;2023-08-06T01:15:49;3.28;;;3.00;;
13687;SDS011;6916;51.504;7.416;2023-08-06T01:26:02;2.47;;;2.00;;
13687;SDS011;6916;51.504;7.416;2023-08-06T01:36:10;3.85;;;2.33;;
13687;SDS011;6916;51.504;7.416;2023-08-06T01:46:13;4.82;;;2.75;;
13687;SDS011;6916;51.504;7.416;2023-08-06T01:56:16;3.30;;;2.60;;
13687;SDS011;6916;51.504;7.416;2023-08-06T02:06:18;4.07;;;2.33;;
13687;SDS011;6916;51.504;7.416;2023-08-06T02:16:21;3.92;;;2.38;;
13687;SDS011;6916;51.504;7.416;2023-08-06T02:26:24;4.78;;;2.75;;
13687;SDS011;6916;51.504;7.416;2023-08-06T02:36:26;5.10;;;2.85;;
13687;SDS011;6916;51.504;7.416;2023-08-06T02:46:34;3.13;;;2.80;;
13687;SDS011;6916;51.504;7.416;2023-08-06T02:56:36;6.20;;;2.28;;
13687;SDS011;6916;51.504;7.416;2023-08-06T03:06:52;3.65;;;2.65;;
13687;SDS011;6916;51.504;7.416;2023-08-06T03:16:58;3.00;;;2.67;;
13687;SDS011;6916;51.504;7.416;2023-08-06T03:27:01;3.65;;;2.78;;
13687;SDS011;6916;51.504;7.416;2023-08-06T03:37:06;7.85;;;3.25;;
13687;SDS011;6916;51.504;7.416;2023-08-06T03:47:09;3.33;;;2.53;;
13687;SDS011;6916;51.504;7.416;2023-08-06T03:57:11;7.60;;;3.42;;
13687;SDS011;6916;51.504;7.416;2023-08-06T04:07:15;4.90;;;3.00;;
13687;SDS011;6916;51.504;7.416;2023-08-06T04:17:18;4.93;;;2.90;;
13687;SDS011;6916;51.504;7.416;2023-08-06T04:27:25;3.90;;;3.25;;
13687;SDS011;6916;51.504;7.416;2023-08-06T04:37:28;2.70;;;2.47;;
13687;SDS011;6916;51.504;7.416;2023-08-06T04:47:31;3.28;;;2.97;;
13687;SDS011;6916;51.504;7.416;2023-08-06T04:57:34;4.33;;;3.30;;
13687;SDS011;6916;51.504;7.416;2023-08-06T05:07:36;4.00;;;2.67;;
13687;SDS011;6916;51.504;7.416;2023-08-06T05:17:39;4.60;;;2.60;;
13687;SDS011;6916;51.504;7.416;2023-08-06T05:27:41;3.45;;;3.00;;
13687;SDS011;6916;51.504;7.416;2023-08-06T05:37:44;3.55;;;2.70;;
13687;SDS011;6916;51.504;7.416;2023-08-06T05:47:50;3.60;;;2.60;;
13687;SDS011;6916;51.504;7.416;2023-08-06T05:57:52;3.30;;;2.10;;
13687;SDS011;6916;51.504;7.416;2023-08-06T06:07:55;4.05;;;2.45;;
13687;SDS011;6916;51.504;7.416;2023-08-06T06:17:57;3.17;;;2.92;;
13687;SDS011;6916;51.504;7.416;2023-08-06T06:28:00;3.10;;;2.45;;
13687;SDS011;6916;51.504;7.416;2023-08-06T06:38:03;3.10;;;2.33;;
13687;SDS011;6916;51.504;7.416;2023-08-06T06:48:05;5.90;;;2.25;;
13687;SDS011;6916;51.504;7.416;2023-08-06T06:58:08;5.72;;;2.58;;
13687;SDS011;6916;51.504;7.416;2023-08-06T07:08:11;6.07;;;2.85;;
13687;SDS011;6916;51.504;7.416;2023-08-06T07:18:13;3.90;;;2.30;;
13687;SDS011;6916;51.504;7.416;2023-08-06T07:28:17;3.45;;;2.35;;
13687;SDS011;6916;51.504;7.416;2023-08-06T07:38:19;4.28;;;2.28;;
13687;SDS011;6916;51.504;7.416;2023-08-06T07:48:22;3.58;;;1.58;;
13687;SDS011;6916;51.504;7.416;2023-08-06T07:58:29;4.43;;;1.73;;
13687;SDS011;6916;51.504;7.416;2023-08-06T08:08:32;3.65;;;2.08;;
13687;SDS011;6916;51.504;7.416;2023-08-06T08:18:36;1.77;;;1.30;;
13687;SDS011;6916;51.504;7.416;2023-08-06T08:28:39;4.05;;;1.63;;
13687;SDS011;6916;51.504;7.416;2023-08-06T08:38:41;2.35;;;1.83;;
13687;SDS011;6916;51.504;7.416;2023-08-06T08:48:45;1.63;;;1.25;;
13687;SDS011;6916;51.504;7.416;2023-08-06T08:58:48;2.33;;;1.15;;
13687;SDS011;6916;51.504;7.416;2023-08-06T09:08:54;2.03;;;1.00;;
13687;SDS011;6916;51.504;7.416;2023-08-06T09:19:07;1.63;;;1.25;;
13687;SDS011;6916;51.504;7.416;2023-08-06T09:29:11;2.92;;;1.40;;
13687;SDS011;6916;51.504;7.416;2023-08-06T09:39:15;9.10;;;2.40;;
13687;SDS011;6916;51.504;7.416;2023-08-06T09:49:20;2.95;;;2.08;;
13687;SDS011;6916;51.504;7.416;2023-08-06T09:59:25;3.53;;;2.72;;
13687;SDS011;6916;51.504;7.416;2023-08-06T10:09:29;4.80;;;2.50;;
13687;SDS011;6916;51.504;7.416;2023-08-06T10:19:32;3.35;;;1.92;;
13687;SDS011;6916;51.504;7.416;2023-08-06T10:29:35;3.78;;;3.10;;
13687;SDS011;6916;51.504;7.416;2023-08-06T10:39:47;3.78;;;2.45;;
13687;SDS011;6916;51.504;7.416;2023-08-06T10:49:51;2.33;;;2.10;;
13687;SDS011;6916;51.504;7.416;2023-08-06T10:59:54;2.13;;;1.88;;
13687;SDS011;6916;51.504;7.416;2023-08-06T11:10:17;2.75;;;2.05;;
13687;SDS011;6916;51.504;7.416;2023-08-06T11:20:20;2.15;;;1.90;;
13687;SDS011;6916;51.504;7.416;2023-08-06T11:30:26;3.67;;;2.35;;
13687;SDS011;6916;51.504;7.416;2023-08-06T11:40:29;3.22;;;2.35;;
13687;SDS011;6916;51.504;7.416;2023-08-06T11:50:35;2.22;;;1.80;;
13687;SDS011;6916;51.504;7.416;2023-08-06T12:00:39;1.90;;;1.80;;
13687;SDS011;6916;51.504;7.416;2023-08-06T12:10:42;6.38;;;3.92;;
13687;SDS011;6916;51.504;7.416;2023-08-06T12:20:44;3.03;;;2.83;;
13687;SDS011;6916;51.504;7.416;2023-08-06T12:30:48;5.40;;;4.47;;
13687;SDS011;6916;51.504;7.416;2023-08-06T12:40:52;6.35;;;5.85;;
13687;SDS011;6916;51.504;7.416;2023-08-06T12:50:54;3.33;;;3.03;;
13687;SDS011;6916;51.504;7.416;2023-08-06T13:00:57;2.23;;;2.13;;
13687;SDS011;6916;51.504;7.416;2023-08-06T13:11:00;0.95;;;0.95;;
13687;SDS011;6916;51.504;7.416;2023-08-06T13:21:04;0.43;;;0.40;;
13687;SDS011;6916;51.504;7.416;2023-08-06T13:31:06;0.33;;;0.00;;
13687;SDS011;6916;51.504;7.416;2023-08-06T13:41:10;0.37;;;0.10;;
13687;SDS011;6916;51.504;7.416;2023-08-06T13:51:13;1.97;;;0.40;;
13687;SDS011;6916;51.504;7.416;2023-08-06T14:01:16;0.47;;;0.20;;
13687;SDS011;6916;51.504;7.416;2023-08-06T14:11:21;0.30;;;0.20;;
13687;SDS011;6916;51.504;7.416;2023-08-06T14:21:24;0.43;;;0.30;;
13687;SDS011;6916;51.504;7.416;2023-08-06T14:31:27;0.22;;;0.17;;
13687;SDS011;6916;51.504;7.416;2023-08-06T14:41:31;0.35;;;0.20;;
13687;SDS011;6916;51.504;7.416;2023-08-06T14:51:48;0.70;;;0.30;;
13687;SDS011;6916;51.504;7.416;2023-08-06T15:01:52;0.50;;;0.47;;
13687;SDS011;6916;51.504;7.416;2023-08-06T15:11:56;3.70;;;0.90;;
13687;SDS011;6916;51.504;7.416;2023-08-06T15:21:59;3.42;;;1.50;;
13687;SDS011;6916;51.504;7.416;2023-08-06T15:32:02;2.20;;;1.50;;
13687;SDS011;6916;51.504;7.416;2023-08-06T15:42:05;1.45;;;1.00;;
13687;SDS011;6916;51.504;7.416;2023-08-06T15:52:08;1.47;;;1.10;;
13687;SDS011;6916;51.504;7.416;2023-08-06T16:02:11;1.90;;;1.10;;
13687;SDS011;6916;51.504;7.416;2023-08-06T16:12:15;1.92;;;1.30;;
13687;SDS011;6916;51.504;7.416;2023-08-06T16:22:22;3.17;;;1.50;;
13687;SDS011;6916;51.504;7.416;2023-08-06T16:32:24;2.28;;;1.70;;
13687;SDS011;6916;51.504;7.416;2023-08-06T16:42:27;1.92;;;1.73;;
13687;SDS011;6916;51.504;7.416;2023-08-06T16:52:30;1.97;;;1.73;;
13687;SDS011;6916;51.504;7.416;2023-08-06T17:02:33;2.38;;;1.88;;
13687;SDS011;6916;51.504;7.416;2023-08-06T17:12:35;2.73;;;1.80;;
13687;SDS011;6916;51.504;7.416;2023-08-06T17:22:38;3.57;;;2.07;;
13687;SDS011;6916;51.504;7.416;2023-08-06T17:32:42;3.05;;;2.55;;
13687;SDS011;6916;51.504;7.416;2023-08-06T17:42:45;2.42;;;2.05;;
13687;SDS011;6916;51.504;7.416;2023-08-06T18:03:20;3.55;;;3.20;;
13687;SDS011;6916;51.504;7.416;2023-08-06T18:13:23;4.37;;;2.70;;
13687;SDS011;6916;51.504;7.416;2023-08-06T18:23:26;5.10;;;3.30;;
13687;SDS011;6916;51.504;7.416;2023-08-06T18:33:28;3.00;;;2.70;;
13687;SDS011;6916;51.504;7.416;2023-08-06T18:43:32;3.20;;;1.40;;
13687;SDS011;6916;51.504;7.416;2023-08-06T18:53:35;3.17;;;0.70;;
13687;SDS011;6916;51.504;7.416;2023-08-06T19:03:38;2.47;;;0.23;;
13687;SDS011;6916;51.504;7.416;2023-08-06T19:13:41;2.28;;;0.30;;
13687;SDS011;6916;51.504;7.416;2023-08-06T19:23:44;2.43;;;0.40;;
13687;SDS011;6916;51.504;7.416;2023-08-06T19:33:46;6.00;;;0.53;;
13687;SDS011;6916;51.504;7.416;2023-08-06T19:43:49;1.80;;;0.50;;
13687;SDS011;6916;51.504;7.416;2023-08-06T19:53:52;1.67;;;0.90;;
13687;SDS011;6916;51.504;7.416;2023-08-06T20:03:55;5.30;;;1.42;;
13687;SDS011;6916;51.504;7.416;2023-08-06T20:13:59;2.47;;;0.80;;
13687;SDS011;6916;51.504;7.416;2023-08-06T20:24:01;4.77;;;0.60;;
13687;SDS011;6916;51.504;7.416;2023-08-06T20:34:05;2.90;;;0.60;;
13687;SDS011;6916;51.504;7.416;2023-08-06T20:44:07;2.80;;;0.40;;
13687;SDS011;6916;51.504;7.416;2023-08-06T20:54:10;3.47;;;0.82;;
13687;SDS011;6916;51.504;7.416;2023-08-06T21:04:12;4.47;;;1.00;;
13687;SDS011;6916;51.504;7.416;2023-08-06T21:14:15;9.03;;;1.47;;
13687;SDS011;6916;51.504;7.416;2023-08-06T21:24:17;4.30;;;1.50;;
13687;SDS011;6916;51.504;7.416;2023-08-06T21:34:21;9.00;;;2.07;;
13687;SDS011;6916;51.504;7.416;2023-08-06T21:44:24;5.30;;;1.80;;
13687;SDS011;6916;51.504;7.416;2023-08-06T21:54:27;3.25;;;1.60;;
13687;SDS011;6916;51.504;7.416;2023-08-06T22:04:29;4.40;;;1.57;;
13687;SDS011;6916;51.504;7.416;2023-08-06T22:14:32;3.47;;;1.17;;
13687;SDS011;6916;51.504;7.416;2023-08-06T22:24:34;3.33;;;1.70;;
13687;SDS011;6916;51.504;7.416;2023-08-06T22:34:37;3.63;;;2.00;;
13687;SDS011;6916;51.504;7.416;2023-08-06T22:44:40;1.37;;;1.10;;
13687;SDS011;6916;51.504;7.416;2023-08-06T22:54:43;1.97;;;1.20;;
13687;SDS011;6916;51.504;7.416;2023-08-06T23:05:06;3.47;;;2.20;;
13687;SDS011;6916;51.504;7.416;2023-08-06T23:15:09;3.92;;;3.30;;
13687;SDS011;6916;51.504;7.416;2023-08-06T23:25:11;7.80;;;5.00;;
13687;SDS011;6916;51.504;7.416;2023-08-06T23:35:14;8.63;;;4.30;;
13687;SDS011;6916;51.504;7.416;2023-08-06T23:45:17;7.70;;;4.83;;
13687;SDS011;6916;51.504;7.416;2023-08-06T23:55:19;4.57;;;4.17;;
